Flight Track Log - Related Links

Times and Time Zones

All times are in EDT time to prevent confusion due to time zone crossing. See the MSR882 flight status page for this flight to view local times or setup timezone preferences in your user account.

Time Position Orientation Groundspeed Altitude Reporting Facility
EDT Latitude Longitude Course Direction KTS MPH feet Rate Location/Type
Thu 09:48:00 AM 6.6065 0.9022 47° Northeast  Level Estimated
Thu 09:49:00 AM 6.7315 1.0361 47° Northeast  Level Estimated
Thu 09:50:00 AM 6.8565 1.1701 47° Northeast  Level Estimated
Thu 09:51:00 AM 6.9815 1.3041 47° Northeast  Level Estimated
Thu 09:52:00 AM 7.1064 1.4383 47° Northeast  Level Estimated
Thu 09:53:00 AM 7.2312 1.5725 47° Northeast  Level Estimated
Thu 09:54:00 AM 7.3560 1.7067 47° Northeast  Level Estimated
Thu 09:55:00 AM 7.4808 1.8411 47° Northeast  Level Estimated
Thu 09:56:00 AM 7.6056 1.9755 47° Northeast  Level Estimated
Thu 09:57:00 AM 7.7303 2.1100 47° Northeast  Level Estimated
Thu 09:58:00 AM 7.8549 2.2446 47° Northeast  Level Estimated
Thu 09:59:00 AM 7.9795 2.3793 47° Northeast  Level Estimated
Thu 10:00:00 AM 8.1041 2.5140 47° Northeast  Level Estimated
Thu 10:01:00 AM 8.2286 2.6488 47° Northeast  Level Estimated
Thu 10:02:00 AM 8.3531 2.7837 47° Northeast  Level Estimated
Thu 10:03:00 AM 8.4776 2.9187 47° Northeast  Level Estimated
Thu 10:04:00 AM 8.6020 3.0538 47° Northeast  Level Estimated
Thu 10:05:00 AM 8.7263 3.1890 47° Northeast  Level Estimated
Thu 10:06:00 AM 8.8506 3.3243 47° Northeast  Level Estimated
Thu 10:07:00 AM 8.9749 3.4596 47° Northeast  Level Estimated
Thu 10:08:00 AM 9.0991 3.5951 47° Northeast  Level Estimated
Thu 10:09:00 AM 9.2232 3.7306 47° Northeast  Level Estimated
Thu 10:10:00 AM 9.3473 3.8663 47° Northeast  Level Estimated
Thu 10:11:00 AM 9.4714 4.0020 47° Northeast  Level Estimated
Thu 10:12:00 AM 9.5954 4.1378 47° Northeast  Level Estimated
Thu 10:13:00 AM 9.7193 4.2738 47° Northeast  Level Estimated
Thu 10:14:00 AM 9.8432 4.4098 47° Northeast  Level Estimated
Thu 10:15:00 AM 9.9670 4.5459 47° Northeast  Level Estimated
Thu 10:16:00 AM 10.0908 4.6822 47° Northeast  Level Estimated
Thu 10:17:00 AM 10.2145 4.8185 47° Northeast  Level Estimated
Thu 10:18:00 AM 10.3382 4.9550 47° Northeast  Level Estimated
Thu 10:19:00 AM 10.4618 5.0915 47° Northeast  Level Estimated
Thu 10:20:00 AM 10.5854 5.2282 47° Northeast  Level Estimated
Thu 10:21:00 AM 10.7088 5.3650 47° Northeast  Level Estimated
Thu 10:22:00 AM 10.8323 5.5019 47° Northeast  Level Estimated
Thu 10:23:00 AM 10.9556 5.6389 47° Northeast  Level Estimated
Thu 10:24:00 AM 11.0789 5.7760 47° Northeast  Level Estimated
Thu 10:25:00 AM 11.2022 5.9132 48° Northeast  Level Estimated
Thu 10:26:00 AM 11.3254 6.0506 48° Northeast  Level Estimated
Thu 10:27:00 AM 11.4485 6.1880 48° Northeast  Level Estimated
Thu 10:28:00 AM 11.5716 6.3256 48° Northeast  Level Estimated
Thu 10:29:00 AM 11.6946 6.4633 48° Northeast  Level Estimated
Thu 10:30:00 AM 11.8175 6.6012 48° Northeast  Level Estimated
Thu 10:31:00 AM 11.9403 6.7391 48° Northeast  Level Estimated
Thu 10:32:00 AM 12.0631 6.8772 48° Northeast  Level Estimated
Thu 10:33:00 AM 12.1859 7.0154 48° Northeast  Level Estimated
Thu 10:34:00 AM 12.3085 7.1537 48° Northeast  Level Estimated
Thu 10:35:00 AM 12.4311 7.2922 48° Northeast  Level Estimated
Thu 10:36:00 AM 12.5536 7.4308 48° Northeast  Level Estimated
Thu 10:37:00 AM 12.6761 7.5695 48° Northeast  Level Estimated
Thu 10:38:00 AM 12.7985 7.7084 48° Northeast  Level Estimated
Thu 10:39:00 AM 12.9208 7.8474 48° Northeast  Level Estimated
Thu 10:40:00 AM 13.0430 7.9865 48° Northeast  Level Estimated
Thu 10:41:00 AM 13.1651 8.1257 48° Northeast  Level Estimated
Thu 10:42:00 AM 13.2872 8.2652 48° Northeast  Level Estimated
Thu 10:43:00 AM 13.4092 8.4047 48° Northeast  Level Estimated
Thu 10:44:00 AM 13.5311 8.5444 48° Northeast  Level Estimated
Thu 10:45:00 AM 13.6530 8.6842 48° Northeast  Level Estimated
Thu 10:46:00 AM 13.7748 8.8242 48° Northeast  Level Estimated
Thu 10:47:00 AM 13.8965 8.9643 48° Northeast  Level Estimated
Thu 10:48:00 AM 14.0181 9.1046 48° Northeast  Level Estimated
Thu 10:49:00 AM 14.1396 9.2450 48° Northeast  Level Estimated
Thu 10:50:00 AM 14.2611 9.3856 48° Northeast  Level Estimated
Thu 10:51:00 AM 14.3824 9.5263 48° Northeast  Level Estimated
Thu 10:52:00 AM 14.5037 9.6672 48° Northeast  Level Estimated
Thu 10:53:00 AM 14.6249 9.8082 48° Northeast  Level Estimated
Thu 10:54:00 AM 14.7460 9.9494 48° Northeast  Level Estimated
Thu 10:55:00 AM 14.8670 10.0907 48° Northeast  Level Estimated
Thu 10:56:00 AM 14.9880 10.2322 48° Northeast  Level Estimated
Thu 10:57:00 AM 15.1088 10.3739 49° Northeast  Level Estimated
Thu 10:58:00 AM 15.2296 10.5157 49° Northeast  Level Estimated
Thu 10:59:00 AM 15.3503 10.6577 49° Northeast  Level Estimated
Thu 11:00:00 AM 15.4709 10.7998 49° Northeast  Level Estimated
Thu 11:01:00 AM 15.5914 10.9422 49° Northeast  Level Estimated
Thu 11:02:00 AM 15.7118 11.0846 49° Northeast  Level Estimated
Thu 11:03:00 AM 15.8321 11.2273 49° Northeast  Level Estimated
Thu 11:04:00 AM 15.9523 11.3701 49° Northeast  Level Estimated
Thu 11:05:00 AM 16.0724 11.5131 49° Northeast  Level Estimated
Thu 11:06:00 AM 16.1924 11.6562 49° Northeast  Level Estimated
Thu 11:07:00 AM 16.3124 11.7996 49° Northeast  Level Estimated
Thu 11:08:00 AM 16.4322 11.9431 49° Northeast  Level Estimated
Thu 11:09:00 AM 16.5520 12.0868 49° Northeast  Level Estimated
Thu 11:10:00 AM 16.6716 12.2306 49° Northeast  Level Estimated
Thu 11:11:00 AM 16.7911 12.3747 49° Northeast  Level Estimated
Thu 11:12:00 AM 16.9106 12.5189 49° Northeast  Level Estimated
Thu 11:13:00 AM 17.0299 12.6633 49° Northeast  Level Estimated
Thu 11:14:00 AM 17.1492 12.8079 49° Northeast  Level Estimated
Thu 11:15:00 AM 17.2683 12.9527 49° Northeast  Level Estimated
Thu 11:16:00 AM 17.3873 13.0977 49° Northeast  Level Estimated
Thu 11:17:00 AM 17.5063 13.2428 49° Northeast  Level Estimated
Thu 11:18:00 AM 17.6251 13.3882 49° Northeast  Level Estimated
Thu 11:19:00 AM 17.7438 13.5337 49° Northeast  Level Estimated
Thu 11:20:00 AM 17.8624 13.6795 49° Northeast  Level Estimated
Thu 11:21:00 AM 17.9809 13.8254 49° Northeast  Level Estimated
Thu 11:22:00 AM 18.0993 13.9715 50° Northeast  Level Estimated
Thu 11:23:00 AM 18.2176 14.1178 50° Northeast  Level Estimated
Thu 11:24:00 AM 18.3357 14.2643 50° Northeast  Level Estimated
Thu 11:25:00 AM 18.4538 14.4111 50° Northeast  Level Estimated
Thu 11:26:00 AM 18.5717 14.5580 50° Northeast  Level Estimated
Thu 11:27:00 AM 18.6896 14.7051 50° Northeast  Level Estimated
Thu 11:28:00 AM 18.8073 14.8524 50° Northeast  Level Estimated
Thu 11:29:00 AM 18.9249 15.0000 50° Northeast  Level Estimated
Thu 11:30:00 AM 19.0424 15.1477 50° Northeast  Level Estimated
Thu 11:31:00 AM 19.1597 15.2957 50° Northeast  Level Estimated
Thu 11:32:00 AM 19.2770 15.4438 50° Northeast  Level Estimated
Thu 11:33:00 AM 19.3941 15.5922 50° Northeast  Level Estimated
Thu 11:34:00 AM 19.5111 15.7408 50° Northeast  Level Estimated
Thu 11:35:00 AM 19.6280 15.8896 50° Northeast  Level Estimated
Thu 11:36:00 AM 19.7447 16.0386 50° Northeast  Level Estimated
Thu 11:37:00 AM 19.8614 16.1878 50° Northeast  Level Estimated
Thu 11:38:00 AM 19.9779 16.3373 50° Northeast  Level Estimated
Thu 11:39:00 AM 20.0943 16.4870 50° Northeast  Level Estimated
Thu 11:40:00 AM 20.2105 16.6369 50° Northeast  Level Estimated
Thu 11:41:00 AM 20.3267 16.7870 50° Northeast  Level Estimated
Thu 11:42:00 AM 20.4427 16.9373 51° Northeast  Level Estimated
Thu 11:43:00 AM 20.5585 17.0879 51° Northeast  Level Estimated
Thu 11:44:00 AM 20.6743 17.2387 51° Northeast  Level Estimated
Thu 11:45:00 AM 20.7899 17.3898 51° Northeast  Level Estimated
Thu 11:46:00 AM 20.9054 17.5410 51° Northeast  Level Estimated
Thu 11:47:00 AM 21.0207 17.6925 51° Northeast  Level Estimated
Thu 11:48:00 AM 21.1359 17.8443 51° Northeast  Level Estimated
Thu 11:49:00 AM 21.2510 17.9962 51° Northeast  Level Estimated
Thu 11:50:00 AM 21.3660 18.1484 51° Northeast  Level Estimated
Thu 11:51:00 AM 21.4808 18.3009 51° Northeast  Level Estimated
Thu 11:52:00 AM 21.5954 18.4536 51° Northeast  Level Estimated
Thu 11:53:00 AM 21.7100 18.6065 51° Northeast  Level Estimated
Thu 11:54:00 AM 21.8244 18.7597 51° Northeast  Level Estimated
Thu 11:55:00 AM 21.9386 18.9131 51° Northeast  Level Estimated
Thu 11:56:00 AM 22.0527 19.0668 51° Northeast  Level Estimated
Thu 11:57:00 AM 22.1667 19.2207 51° Northeast  Level Estimated
Thu 11:58:00 AM 22.2805 19.3748 51° Northeast  Level Estimated
Thu 11:59:00 AM 22.3941 19.5292 51° Northeast  Level Estimated
Thu 12:00:00 PM 22.5077 19.6839 52° Northeast  Level Estimated
Thu 12:01:00 PM 22.6210 19.8388 52° Northeast  Level Estimated
Thu 12:02:00 PM 22.7343 19.9940 52° Northeast  Level Estimated
Thu 12:03:00 PM 22.8473 20.1494 52° Northeast  Level Estimated
Thu 12:04:00 PM 22.9603 20.3051 52° Northeast  Level Estimated
Thu 12:05:00 PM 23.0730 20.4611 52° Northeast  Level Estimated
Thu 12:06:00 PM 23.1857 20.6173 52° Northeast  Level Estimated
Thu 12:07:00 PM 23.2981 20.7737 52° Northeast  Level Estimated
Thu 12:08:00 PM 23.4104 20.9305 52° Northeast  Level Estimated
Thu 12:09:00 PM 23.5226 21.0875 52° Northeast  Level Estimated
Thu 12:10:00 PM 23.6346 21.2447 52° Northeast  Level Estimated
Thu 12:11:00 PM 23.7464 21.4023 52° Northeast  Level Estimated
Thu 12:12:00 PM 23.8581 21.5601 52° Northeast  Level Estimated
Thu 12:13:00 PM 23.9696 21.7182 52° Northeast  Level Estimated
Thu 12:14:00 PM 24.0809 21.8765 52° Northeast  Level Estimated
Thu 12:15:00 PM 24.1921 22.0352 52° Northeast  Level Estimated
Thu 12:16:00 PM 24.3032 22.1941 53° Northeast  Level Estimated
Thu 12:17:00 PM 24.4140 22.3533 53° Northeast  Level Estimated
Thu 12:18:00 PM 24.5247 22.5127 53° Northeast  Level Estimated
Thu 12:19:00 PM 24.6352 22.6725 53° Northeast  Level Estimated
Thu 12:20:00 PM 24.7456 22.8325 53° Northeast  Level Estimated
Thu 12:21:00 PM 24.8558 22.9928 53° Northeast  Level Estimated
Thu 12:22:00 PM 24.9658 23.1534 53° Northeast  Level Estimated
Thu 12:23:00 PM 25.0756 23.3143 53° Northeast  Level Estimated
Thu 12:24:00 PM 25.1853 23.4755 53° Northeast  Level Estimated
Thu 12:25:00 PM 25.2948 23.6370 53° Northeast  Level Estimated
Thu 12:26:00 PM 25.4041 23.7987 53° Northeast  Level Estimated
Thu 12:27:00 PM 25.5132 23.9608 53° Northeast  Level Estimated
Thu 12:28:00 PM 25.6222 24.1231 53° Northeast  Level Estimated
Thu 12:29:00 PM 25.7310 24.2858 53° Northeast  Level Estimated
Thu 12:30:00 PM 25.8396 24.4487 53° Northeast  Level Estimated
Thu 12:31:00 PM 25.9480 24.6120 54° Northeast  Level Estimated
Thu 12:32:00 PM 26.0562 24.7755 54° Northeast  Level Estimated
Thu 12:33:00 PM 26.1643 24.9393 54° Northeast  Level Estimated
Thu 12:34:00 PM 26.2721 25.1035 54° Northeast  Level Estimated
Thu 12:35:00 PM 26.3798 25.2679 54° Northeast  Level Estimated
Thu 12:36:00 PM 26.4873 25.4327 54° Northeast  Level Estimated
Thu 12:37:00 PM 26.5946 25.5978 54° Northeast  Level Estimated
Thu 12:38:00 PM 26.7017 25.7631 54° Northeast  Level Estimated
Thu 12:39:00 PM 26.8086 25.9288 54° Northeast  Level Estimated
Thu 12:40:00 PM 26.9154 26.0948 54° Northeast  Level Estimated
Thu 12:41:00 PM 27.0219 26.2611 54° Northeast  Level Estimated
Thu 12:42:00 PM 27.1282 26.4278 54° Northeast  Level Estimated
Thu 12:43:00 PM 27.2344 26.5947 54° Northeast  Level Estimated
Thu 12:44:00 PM 27.3403 26.7620 54° Northeast  Level Estimated
Thu 12:45:00 PM 27.4460 26.9296 55° Northeast  Level Estimated
Thu 12:46:00 PM 27.5516 27.0975 55° Northeast  Level Estimated
Thu 12:47:00 PM 27.6569 27.2657 55° Northeast  Level Estimated
Thu 12:48:00 PM 27.7621 27.4342 55° Northeast  Level Estimated
Thu 12:49:00 PM 27.8670 27.6031 55° Northeast  Level Estimated
Thu 12:50:00 PM 27.9717 27.7723 55° Northeast  Level Estimated
Thu 12:51:00 PM 28.0762 27.9418 55° Northeast  Level Estimated
Thu 12:52:00 PM 28.1805 28.1117 55° Northeast  Level Estimated
Thu 12:53:00 PM 28.2846 28.2819 55° Northeast  Level Estimated
Thu 12:54:00 PM 28.3885 28.4524 55° Northeast  Level Estimated
Thu 12:55:00 PM 28.4921 28.6233 55° Northeast  Level Estimated
Thu 12:56:00 PM 28.5956 28.7945 55° Northeast  Level Estimated
Thu 12:57:00 PM 28.6989 28.9660 56° Northeast  Level Estimated
Thu 12:58:00 PM 28.8019 29.1379 56° Northeast  Level Estimated
Thu 12:59:00 PM 28.9047 29.3101 56° Northeast  Level Estimated
Thu 01:00:00 PM 29.0073 29.4826 56° Northeast  Level Estimated
Thu 01:01:00 PM 29.1096 29.6555 56° Northeast  Level Estimated
Thu 01:02:00 PM 29.2118 29.8288 56° Northeast  Level Estimated
Thu 01:03:00 PM 29.3137 30.0024 56° Northeast  Level Estimated
Thu 01:04:00 PM 29.4154 30.1763 56° Northeast  Level Estimated
Thu 01:05:00 PM 29.5169 30.3506 56° Northeast  Level Estimated
Thu 01:06:00 PM 29.6181 30.5252 56° Northeast  Level Estimated
Thu 01:07:00 PM 29.7191 30.7002 56° Northeast  Level Estimated
Thu 01:08:00 PM 29.8199 30.8755 56° Northeast  Level Estimated
Thu 01:09:00 PM 29.9205 31.0512 57° Northeast  Level Estimated
Thu 01:10:00 PM 30.0208 31.2272 57° Northeast  Level Estimated
Thu 01:11:00 PM 30.1209 31.4036 57° Northeast  Level Estimated
Thu 01:12:00 PM 30.1219 31.4056 57° Northeast  Level Estimated
Thu 01:13:00 PM 30.1219 31.4056 319° Northwest  Level Estimated
Thu 01:14:00 PM 30.1219 31.4056 319° Northwest  Level Estimated
Thu 01:15:00 PM 30.1219 31.4056 319° Northwest  Level Estimated
Thu 01:16:00 PM 30.1219 31.4056 319° Northwest  Level Estimated
Thu 01:17:00 PM 30.1219 31.4056 319° Northwest  Level Estimated
Thu 01:18:00 PM 30.1219 31.4056 319° Northwest  Level Estimated
Thu 01:19:00 PM 30.1219 31.4056 319° Northwest  Level Estimated
Thu 01:20:00 PM 30.1219 31.4056 319° Northwest  Level Estimated
Thu 01:21:00 PM 30.1219 31.4056 319° Northwest  Level Estimated
Thu 01:22:00 PM 30.1219 31.4056 319° Northwest  Level Estimated
Thu 01:23:00 PM 30.1219 31.4056 319° Northwest  Level Estimated
Thu 01:24:00 PM 30.1219 31.4056 319° Northwest  Level Estimated
Thu 01:25:00 PM 30.1219 31.4056 319° Northwest  Level Estimated
Thu 01:26:00 PM 30.1219 31.4056 319° Northwest  Level Estimated
Thu 01:27:00 PM 30.1219 31.4056 319° Northwest  Level Estimated

Login

Don't have an account? Register now (free) for customized features, flight alerts, and more!